sensor_id;sensor_type;location;lat;lon;timestamp;pressure;altitude;pressure_sealevel;temperature;humidity
21960;BME280;11144;43.030;25.108;2022-07-29T00:01:07;99322.69;;;21.16;100.00
21960;BME280;11144;43.030;25.108;2022-07-29T00:02:50;99318.25;;;21.15;100.00
21960;BME280;11144;43.030;25.108;2022-07-29T00:04:24;99323.88;;;21.12;100.00
21960;BME280;11144;43.030;25.108;2022-07-29T00:05:57;99323.50;;;21.05;100.00
21960;BME280;11144;43.030;25.108;2022-07-29T00:07:31;99314.31;;;20.97;100.00
21960;BME280;11144;43.030;25.108;2022-07-29T00:09:05;99329.75;;;21.06;100.00
21960;BME280;11144;43.030;25.108;2022-07-29T00:10:38;99333.16;;;21.08;100.00
21960;BME280;11144;43.030;25.108;2022-07-29T00:12:12;99333.44;;;21.05;100.00
21960;BME280;11144;43.030;25.108;2022-07-29T00:13:52;99335.84;;;20.97;100.00
21960;BME280;11144;43.030;25.108;2022-07-29T00:15:27;99340.97;;;21.00;100.00
21960;BME280;11144;43.030;25.108;2022-07-29T00:17:00;99330.47;;;20.97;100.00
21960;BME280;11144;43.030;25.108;2022-07-29T00:18:32;99333.91;;;20.99;100.00
21960;BME280;11144;43.030;25.108;2022-07-29T00:20:07;99333.91;;;20.99;100.00
21960;BME280;11144;43.030;25.108;2022-07-29T00:21:40;99323.13;;;20.99;100.00
21960;BME280;11144;43.030;25.108;2022-07-29T00:23:14;99323.38;;;20.96;100.00
21960;BME280;11144;43.030;25.108;2022-07-29T00:24:48;99324.47;;;20.93;100.00
21960;BME280;11144;43.030;25.108;2022-07-29T00:26:21;99316.94;;;20.86;100.00
21960;BME280;11144;43.030;25.108;2022-07-29T00:27:55;99319.16;;;20.81;100.00
21960;BME280;11144;43.030;25.108;2022-07-29T00:29:28;99312.53;;;20.74;100.00
21960;BME280;11144;43.030;25.108;2022-07-29T00:31:06;99316.44;;;20.70;100.00
21960;BME280;11144;43.030;25.108;2022-07-29T00:32:40;99324.72;;;20.67;100.00
21960;BME280;11144;43.030;25.108;2022-07-29T00:34:14;99325.50;;;20.69;100.00
21960;BME280;11144;43.030;25.108;2022-07-29T00:36:01;99321.81;;;20.70;100.00
21960;BME280;11144;43.030;25.108;2022-07-29T00:37:35;99316.44;;;20.70;100.00
21960;BME280;11144;43.030;25.108;2022-07-29T00:39:07;99318.38;;;20.68;100.00
21960;BME280;11144;43.030;25.108;2022-07-29T00:40:40;99318.63;;;20.65;100.00
21960;BME280;11144;43.030;25.108;2022-07-29T00:42:15;99315.19;;;20.63;100.00
21960;BME280;11144;43.030;25.108;2022-07-29T00:43:48;99309.94;;;20.61;100.00
21960;BME280;11144;43.030;25.108;2022-07-29T00:45:21;99307.59;;;20.57;100.00
21960;BME280;11144;43.030;25.108;2022-07-29T00:46:57;99310.28;;;20.57;100.00
21960;BME280;11144;43.030;25.108;2022-07-29T00:48:30;99313.56;;;20.49;100.00
21960;BME280;11144;43.030;25.108;2022-07-29T00:50:04;99311.00;;;20.48;100.00
21960;BME280;11144;43.030;25.108;2022-07-29T00:51:39;99299.72;;;20.32;100.00
21960;BME280;11144;43.030;25.108;2022-07-29T00:53:12;99304.00;;;20.34;100.00
21960;BME280;11144;43.030;25.108;2022-07-29T00:54:46;99308.72;;;20.31;100.00
21960;BME280;11144;43.030;25.108;2022-07-29T00:56:19;99306.41;;;20.26;100.00
21960;BME280;11144;43.030;25.108;2022-07-29T00:57:53;99311.78;;;20.26;100.00
21960;BME280;11144;43.030;25.108;2022-07-29T00:59:28;99316.06;;;20.29;100.00
21960;BME280;11144;43.030;25.108;2022-07-29T01:01:06;99312.38;;;20.30;100.00
21960;BME280;11144;43.030;25.108;2022-07-29T01:02:40;99321.19;;;20.32;100.00
21960;BME280;11144;43.030;25.108;2022-07-29T01:04:13;99313.38;;;20.29;100.00
21960;BME280;11144;43.030;25.108;2022-07-29T01:05:48;99314.78;;;20.22;100.00
21960;BME280;11144;43.030;25.108;2022-07-29T01:07:23;99304.63;;;20.14;100.00
21960;BME280;11144;43.030;25.108;2022-07-29T01:08:56;99309.44;;;20.09;100.00
21960;BME280;11144;43.030;25.108;2022-07-29T01:10:31;99303.03;;;20.12;100.00
21960;BME280;11144;43.030;25.108;2022-07-29T01:12:06;99317.44;;;20.11;100.00
21960;BME280;11144;43.030;25.108;2022-07-29T01:13:39;99313.75;;;20.12;100.00
21960;BME280;11144;43.030;25.108;2022-07-29T01:15:13;99305.59;;;20.13;100.00
21960;BME280;11144;43.030;25.108;2022-07-29T01:16:51;99304.94;;;20.10;100.00
21960;BME280;11144;43.030;25.108;2022-07-29T01:18:32;99310.13;;;20.13;100.00
21960;BME280;11144;43.030;25.108;2022-07-29T01:20:14;99306.56;;;20.12;100.00
21960;BME280;11144;43.030;25.108;2022-07-29T01:21:53;99302.38;;;20.08;100.00
21960;BME280;11144;43.030;25.108;2022-07-29T01:23:43;99297.13;;;20.07;100.00
21960;BME280;11144;43.030;25.108;2022-07-29T01:27:41;99290.44;;;19.88;100.00
21960;BME280;11144;43.030;25.108;2022-07-29T01:29:28;99301.38;;;19.85;100.00
21960;BME280;11144;43.030;25.108;2022-07-29T01:31:12;99308.72;;;19.83;100.00
21960;BME280;11144;43.030;25.108;2022-07-29T01:33:01;99305.06;;;19.84;100.00
21960;BME280;11144;43.030;25.108;2022-07-29T01:34:41;99306.25;;;19.80;100.00
21960;BME280;11144;43.030;25.108;2022-07-29T01:36:18;99302.69;;;19.80;100.00
21960;BME280;11144;43.030;25.108;2022-07-29T01:37:58;99305.25;;;19.81;100.00
21960;BME280;11144;43.030;25.108;2022-07-29T01:39:36;99308.72;;;19.83;100.00
21960;BME280;11144;43.030;25.108;2022-07-29T01:41:13;99306.75;;;19.85;100.00
21960;BME280;11144;43.030;25.108;2022-07-29T01:42:50;99306.97;;;19.82;100.00
21960;BME280;11144;43.030;25.108;2022-07-29T01:44:31;99301.31;;;19.74;100.00
21960;BME280;11144;43.030;25.108;2022-07-29T01:46:10;99292.66;;;19.71;100.00
21960;BME280;11144;43.030;25.108;2022-07-29T01:47:48;99293.47;;;19.71;100.00
21960;BME280;11144;43.030;25.108;2022-07-29T01:49:27;99295.22;;;19.72;100.00
21960;BME280;11144;43.030;25.108;2022-07-29T01:51:04;99292.66;;;19.71;100.00
21960;BME280;11144;43.030;25.108;2022-07-29T01:52:43;99298.34;;;19.66;100.00
21960;BME280;11144;43.030;25.108;2022-07-29T01:54:20;99290.28;;;19.66;100.00
21960;BME280;11144;43.030;25.108;2022-07-29T01:56:00;99288.38;;;19.68;100.00
21960;BME280;11144;43.030;25.108;2022-07-29T01:57:36;99288.13;;;19.71;100.00
21960;BME280;11144;43.030;25.108;2022-07-29T01:59:11;99287.28;;;19.71;100.00
21960;BME280;11144;43.030;25.108;2022-07-29T02:00:48;99289.22;;;19.69;100.00
21960;BME280;11144;43.030;25.108;2022-07-29T02:02:23;99284.94;;;19.66;100.00
21960;BME280;11144;43.030;25.108;2022-07-29T02:03:59;99288.59;;;19.65;100.00
21960;BME280;11144;43.030;25.108;2022-07-29T02:05:35;99278.28;;;19.59;100.00
21960;BME280;11144;43.030;25.108;2022-07-29T02:07:13;99285.13;;;19.63;100.00
21960;BME280;11144;43.030;25.108;2022-07-29T02:08:49;99287.09;;;19.61;100.00
21960;BME280;11144;43.030;25.108;2022-07-29T02:10:28;99294.16;;;19.62;100.00
21960;BME280;11144;43.030;25.108;2022-07-29T02:12:03;99291.38;;;19.64;100.00
21960;BME280;11144;43.030;25.108;2022-07-29T02:13:38;99289.25;;;19.56;100.00
21960;BME280;11144;43.030;25.108;2022-07-29T02:15:13;99280.25;;;19.57;100.00
21960;BME280;11144;43.030;25.108;2022-07-29T02:16:51;99285.81;;;19.54;100.00
21960;BME280;11144;43.030;25.108;2022-07-29T02:18:27;99290.09;;;19.57;100.00
21960;BME280;11144;43.030;25.108;2022-07-29T02:20:03;99287.31;;;19.58;100.00
21960;BME280;11144;43.030;25.108;2022-07-29T02:21:38;99299.53;;;19.62;100.00
21960;BME280;11144;43.030;25.108;2022-07-29T02:23:14;99296.75;;;19.64;100.00
21960;BME280;11144;43.030;25.108;2022-07-29T02:24:52;99292.47;;;19.61;100.00
21960;BME280;11144;43.030;25.108;2022-07-29T02:26:27;99293.56;;;19.59;100.00
21960;BME280;11144;43.030;25.108;2022-07-29T02:28:02;99295.59;;;19.55;100.00
21960;BME280;11144;43.030;25.108;2022-07-29T02:29:37;99294.84;;;19.53;100.00
21960;BME280;11144;43.030;25.108;2022-07-29T02:31:13;99291.19;;;19.54;100.00
21960;BME280;11144;43.030;25.108;2022-07-29T02:32:49;99291.31;;;19.53;100.00
21960;BME280;11144;43.030;25.108;2022-07-29T02:34:24;99283.16;;;19.54;100.00
21960;BME280;11144;43.030;25.108;2022-07-29T02:35:59;99296.56;;;19.54;100.00
21960;BME280;11144;43.030;25.108;2022-07-29T02:37:33;99296.78;;;19.51;100.00
21960;BME280;11144;43.030;25.108;2022-07-29T02:39:08;99294.31;;;19.48;100.00
21960;BME280;11144;43.030;25.108;2022-07-29T02:40:43;99295.91;;;19.51;100.00
21960;BME280;11144;43.030;25.108;2022-07-29T02:42:18;99295.06;;;19.50;100.00
21960;BME280;11144;43.030;25.108;2022-07-29T02:43:54;99281.78;;;19.36;100.00
21960;BME280;11144;43.030;25.108;2022-07-29T02:45:28;99295.94;;;19.38;100.00
21960;BME280;11144;43.030;25.108;2022-07-29T02:47:07;99295.94;;;19.38;100.00
21960;BME280;11144;43.030;25.108;2022-07-29T02:48:48;99298.09;;;19.33;100.00
21960;BME280;11144;43.030;25.108;2022-07-29T02:50:30;99292.94;;;19.30;100.00
21960;BME280;11144;43.030;25.108;2022-07-29T02:52:09;99309.50;;;19.24;100.00
21960;BME280;11144;43.030;25.108;2022-07-29T02:53:49;99278.69;;;19.05;100.00
21960;BME280;11144;43.030;25.108;2022-07-29T02:55:27;99297.00;;;19.11;100.00
21960;BME280;11144;43.030;25.108;2022-07-29T02:57:06;99296.38;;;19.07;100.00
21960;BME280;11144;43.030;25.108;2022-07-29T02:58:46;99309.56;;;19.10;100.00
21960;BME280;11144;43.030;25.108;2022-07-29T03:00:23;99308.38;;;19.14;100.00
21960;BME280;11144;43.030;25.108;2022-07-29T03:01:59;99308.19;;;19.17;100.00
21960;BME280;11144;43.030;25.108;2022-07-29T03:03:36;99306.22;;;19.19;100.00
21960;BME280;11144;43.030;25.108;2022-07-29T03:05:18;99290.34;;;19.16;100.00
21960;BME280;11144;43.030;25.108;2022-07-29T03:06:52;99308.53;;;19.25;100.00
21960;BME280;11144;43.030;25.108;2022-07-29T03:08:27;99302.81;;;19.17;100.00
21960;BME280;11144;43.030;25.108;2022-07-29T03:09:59;99314.28;;;19.19;100.00
21960;BME280;11144;43.030;25.108;2022-07-29T03:11:34;99312.47;;;19.20;100.00
21960;BME280;11144;43.030;25.108;2022-07-29T03:13:17;99311.38;;;19.22;100.00
21960;BME280;11144;43.030;25.108;2022-07-29T03:14:52;99325.00;;;19.19;100.00
21960;BME280;11144;43.030;25.108;2022-07-29T03:16:26;99317.94;;;19.18;100.00
21960;BME280;11144;43.030;25.108;2022-07-29T03:17:59;99325.00;;;19.19;100.00
21960;BME280;11144;43.030;25.108;2022-07-29T03:19:33;99325.66;;;19.23;100.00
21960;BME280;11144;43.030;25.108;2022-07-29T03:21:09;99319.25;;;19.25;100.00
21960;BME280;11144;43.030;25.108;2022-07-29T03:22:43;99329.75;;;19.28;100.00
21960;BME280;11144;43.030;25.108;2022-07-29T03:24:30;99336.31;;;19.24;100.00
21960;BME280;11144;43.030;25.108;2022-07-29T03:26:03;99339.84;;;19.25;100.00
21960;BME280;11144;43.030;25.108;2022-07-29T03:27:37;99336.31;;;19.24;100.00
21960;BME280;11144;43.030;25.108;2022-07-29T03:29:10;99345.09;;;19.26;100.00
21960;BME280;11144;43.030;25.108;2022-07-29T03:30:44;99343.91;;;19.30;100.00
21960;BME280;11144;43.030;25.108;2022-07-29T03:32:18;99338.44;;;19.32;100.00
21960;BME280;11144;43.030;25.108;2022-07-29T03:33:55;99338.22;;;19.35;100.00
21960;BME280;11144;43.030;25.108;2022-07-29T03:35:29;99328.56;;;19.32;100.00
21960;BME280;11144;43.030;25.108;2022-07-29T03:37:05;99349.56;;;19.38;100.00
21960;BME280;11144;43.030;25.108;2022-07-29T03:38:39;99351.09;;;19.42;100.00
21960;BME280;11144;43.030;25.108;2022-07-29T03:40:18;99345.75;;;19.42;100.00
21960;BME280;11144;43.030;25.108;2022-07-29T03:41:55;99351.09;;;19.42;100.00
21960;BME280;11144;43.030;25.108;2022-07-29T03:43:30;99353.78;;;19.42;100.00
21960;BME280;11144;43.030;25.108;2022-07-29T03:45:07;99356.22;;;19.45;100.00
21960;BME280;11144;43.030;25.108;2022-07-29T03:46:43;99361.38;;;19.48;100.00
21960;BME280;11144;43.030;25.108;2022-07-29T03:48:20;99357.50;;;19.52;100.00
21960;BME280;11144;43.030;25.108;2022-07-29T03:50:00;99365.84;;;19.60;100.00
21960;BME280;11144;43.030;25.108;2022-07-29T03:51:35;99353.41;;;19.59;100.00
21960;BME280;11144;43.030;25.108;2022-07-29T03:53:10;99361.34;;;19.73;100.00
21960;BME280;11144;43.030;25.108;2022-07-29T03:54:44;99370.44;;;19.83;100.00
21960;BME280;11144;43.030;25.108;2022-07-29T03:56:19;99366.22;;;19.92;100.00
21960;BME280;11144;43.030;25.108;2022-07-29T03:57:56;99369.22;;;20.00;100.00
21960;BME280;11144;43.030;25.108;2022-07-29T03:59:32;99364.03;;;20.10;100.00
21960;BME280;11144;43.030;25.108;2022-07-29T04:01:06;99363.84;;;20.13;100.00
21960;BME280;11144;43.030;25.108;2022-07-29T04:02:39;99358.00;;;20.19;100.00
21960;BME280;11144;43.030;25.108;2022-07-29T04:04:12;99359.47;;;20.23;100.00
21960;BME280;11144;43.030;25.108;2022-07-29T04:05:57;99362.69;;;20.28;100.00
21960;BME280;11144;43.030;25.108;2022-07-29T04:07:31;99362.22;;;20.34;100.00
21960;BME280;11144;43.030;25.108;2022-07-29T04:09:06;99369.06;;;20.38;100.00
21960;BME280;11144;43.030;25.108;2022-07-29T04:10:41;99358.31;;;20.38;100.00
21960;BME280;11144;43.030;25.108;2022-07-29T04:12:14;99362.22;;;20.34;100.00
21960;BME280;11144;43.030;25.108;2022-07-29T04:13:47;99362.09;;;20.35;100.00
21960;BME280;11144;43.030;25.108;2022-07-29T04:15:21;99354.69;;;20.39;100.00
21960;BME280;11144;43.030;25.108;2022-07-29T04:16:54;99371.53;;;20.41;100.00
21960;BME280;11144;43.030;25.108;2022-07-29T04:18:27;99361.31;;;20.46;100.00
21960;BME280;11144;43.030;25.108;2022-07-29T04:20:00;99355.69;;;20.49;100.00
21960;BME280;11144;43.030;25.108;2022-07-29T04:21:37;99364.03;;;20.57;100.00
21960;BME280;11144;43.030;25.108;2022-07-29T04:23:11;99356.00;;;20.68;100.00
21960;BME280;11144;43.030;25.108;2022-07-29T04:24:45;99343.53;;;20.67;100.00
21960;BME280;11144;43.030;25.108;2022-07-29T04:26:19;99370.34;;;20.79;100.00
21960;BME280;11144;43.030;25.108;2022-07-29T04:27:52;99372.69;;;20.84;100.00
21960;BME280;11144;43.030;25.108;2022-07-29T04:29:35;99357.63;;;20.94;100.00
21960;BME280;11144;43.030;25.108;2022-07-29T04:31:28;99364.47;;;20.98;100.00
21960;BME280;11144;43.030;25.108;2022-07-29T04:33:02;99367.88;;;21.00;100.00
21960;BME280;11144;43.030;25.108;2022-07-29T04:34:36;99365.19;;;21.00;100.00
21960;BME280;11144;43.030;25.108;2022-07-29T04:36:10;99360.78;;;20.99;100.00
21960;BME280;11144;43.030;25.108;2022-07-29T04:38:00;99357.00;;;21.01;100.00
21960;BME280;11144;43.030;25.108;2022-07-29T04:39:34;99364.59;;;21.07;100.00
21960;BME280;11144;43.030;25.108;2022-07-29T04:41:09;99357.88;;;21.13;100.00
21960;BME280;11144;43.030;25.108;2022-07-29T04:42:44;99369.38;;;21.26;100.00
21960;BME280;11144;43.030;25.108;2022-07-29T04:44:20;99365.25;;;21.55;100.00
21960;BME280;11144;43.030;25.108;2022-07-29T04:45:59;99361.34;;;21.81;100.00
21960;BME280;11144;43.030;25.108;2022-07-29T04:47:33;99367.91;;;22.10;100.00
21960;BME280;11144;43.030;25.108;2022-07-29T04:49:06;99377.88;;;22.41;100.00
21960;BME280;11144;43.030;25.108;2022-07-29T04:50:40;99366.78;;;22.66;100.00
21960;BME280;11144;43.030;25.108;2022-07-29T04:52:13;99373.00;;;22.98;100.00
21960;BME280;11144;43.030;25.108;2022-07-29T04:53:46;99364.03;;;23.18;100.00
21960;BME280;11144;43.030;25.108;2022-07-29T04:55:19;99371.31;;;23.38;100.00
21960;BME280;11144;43.030;25.108;2022-07-29T04:56:54;99367.44;;;23.61;100.00
21960;BME280;11144;43.030;25.108;2022-07-29T04:58:27;99358.13;;;23.84;100.00
21960;BME280;11144;43.030;25.108;2022-07-29T05:00:00;99362.81;;;24.12;100.00
21960;BME280;11144;43.030;25.108;2022-07-29T05:01:34;99365.16;;;24.45;100.00
21960;BME280;11144;43.030;25.108;2022-07-29T05:03:07;99352.09;;;24.69;100.00
21960;BME280;11144;43.030;25.108;2022-07-29T05:04:41;99346.38;;;24.91;100.00
21960;BME280;11144;43.030;25.108;2022-07-29T05:06:13;99348.06;;;25.11;100.00
21960;BME280;11144;43.030;25.108;2022-07-29T05:07:46;99341.78;;;25.30;100.00
21960;BME280;11144;43.030;25.108;2022-07-29T05:09:20;99346.81;;;25.52;100.00
21960;BME280;11144;43.030;25.108;2022-07-29T05:10:53;99342.59;;;25.76;100.00
21960;BME280;11144;43.030;25.108;2022-07-29T05:12:28;99338.69;;;25.88;100.00
21960;BME280;11144;43.030;25.108;2022-07-29T05:14:00;99336.28;;;26.13;100.00
21960;BME280;11144;43.030;25.108;2022-07-29T05:15:34;99318.56;;;26.36;100.00
21960;BME280;11144;43.030;25.108;2022-07-29T05:17:08;99318.25;;;26.66;100.00
21960;BME280;11144;43.030;25.108;2022-07-29T05:18:40;99321.75;;;26.84;100.00
21960;BME280;11144;43.030;25.108;2022-07-29T05:20:14;99312.75;;;27.01;100.00
21960;BME280;11144;43.030;25.108;2022-07-29T05:21:47;99316.00;;;27.22;100.00
21960;BME280;11144;43.030;25.108;2022-07-29T05:23:21;99311.63;;;27.29;100.00
21960;BME280;11144;43.030;25.108;2022-07-29T05:24:54;99310.28;;;27.33;100.00
21960;BME280;11144;43.030;25.108;2022-07-29T05:26:27;99314.47;;;27.53;100.00
21960;BME280;11144;43.030;25.108;2022-07-29T05:28:02;99309.78;;;27.71;100.00
21960;BME280;11144;43.030;25.108;2022-07-29T05:29:36;99302.69;;;27.78;100.00
21960;BME280;11144;43.030;25.108;2022-07-29T05:31:16;99315.03;;;27.98;100.00
21960;BME280;11144;43.030;25.108;2022-07-29T05:32:49;99301.81;;;28.03;100.00
21960;BME280;11144;43.030;25.108;2022-07-29T05:34:23;99306.56;;;28.09;100.00
21960;BME280;11144;43.030;25.108;2022-07-29T05:35:56;99301.84;;;28.19;100.00
21960;BME280;11144;43.030;25.108;2022-07-29T05:37:31;99297.28;;;28.35;100.00
21960;BME280;11144;43.030;25.108;2022-07-29T05:39:05;99290.88;;;28.44;100.00
21960;BME280;11144;43.030;25.108;2022-07-29T05:40:39;99296.50;;;28.51;100.00
21960;BME280;11144;43.030;25.108;2022-07-29T05:42:12;99289.69;;;28.63;100.00
21960;BME280;11144;43.030;25.108;2022-07-29T05:43:47;99295.81;;;28.73;100.00
21960;BME280;11144;43.030;25.108;2022-07-29T05:45:21;99294.28;;;28.94;100.00
21960;BME280;11144;43.030;25.108;2022-07-29T05:46:55;99295.47;;;28.92;100.00
21960;BME280;11144;43.030;25.108;2022-07-29T05:48:28;99283.56;;;28.93;100.00
21960;BME280;11144;43.030;25.108;2022-07-29T05:50:02;99282.72;;;28.76;100.00
21960;BME280;11144;43.030;25.108;2022-07-29T05:51:36;99287.81;;;28.87;100.00
21960;BME280;11144;43.030;25.108;2022-07-29T05:53:09;99286.59;;;29.22;100.00
21960;BME280;11144;43.030;25.108;2022-07-29T05:54:51;99286.94;;;29.35;100.00
21960;BME280;11144;43.030;25.108;2022-07-29T05:56:24;99285.50;;;29.63;100.00
21960;BME280;11144;43.030;25.108;2022-07-29T05:57:58;99291.16;;;29.92;100.00
21960;BME280;11144;43.030;25.108;2022-07-29T05:59:35;99283.03;;;30.23;100.00
21960;BME280;11144;43.030;25.108;2022-07-29T06:01:07;99269.81;;;30.57;100.00
21960;BME280;11144;43.030;25.108;2022-07-29T06:02:41;99268.97;;;30.79;100.00
21960;BME280;11144;43.030;25.108;2022-07-29T06:04:14;99274.97;;;31.11;100.00
21960;BME280;11144;43.030;25.108;2022-07-29T06:05:48;99271.44;;;31.25;100.00
21960;BME280;11144;43.030;25.108;2022-07-29T06:07:21;99274.09;;;31.33;100.00
21960;BME280;11144;43.030;25.108;2022-07-29T06:08:54;99271.84;;;31.37;100.00
21960;BME280;11144;43.030;25.108;2022-07-29T06:10:28;99260.22;;;31.35;100.00
21960;BME280;11144;43.030;25.108;2022-07-29T06:12:02;99269.94;;;31.37;100.00
21960;BME280;11144;43.030;25.108;2022-07-29T06:13:35;99266.72;;;31.48;100.00
21960;BME280;11144;43.030;25.108;2022-07-29T06:15:10;99266.19;;;31.67;100.00
21960;BME280;11144;43.030;25.108;2022-07-29T06:16:44;99258.16;;;31.95;100.00
21960;BME280;11144;43.030;25.108;2022-07-29T06:18:17;99267.56;;;32.07;100.00
21960;BME280;11144;43.030;25.108;2022-07-29T06:19:52;99266.41;;;32.16;100.00
21960;BME280;11144;43.030;25.108;2022-07-29T06:21:25;99259.69;;;32.19;100.00
21960;BME280;11144;43.030;25.108;2022-07-29T06:22:59;99254.63;;;32.16;100.00
21960;BME280;11144;43.030;25.108;2022-07-29T06:24:33;99261.34;;;31.99;100.00
21960;BME280;11144;43.030;25.108;2022-07-29T06:26:06;99258.16;;;31.95;100.00
21960;BME280;11144;43.030;25.108;2022-07-29T06:27:40;99257.34;;;32.16;100.00
21960;BME280;11144;43.030;25.108;2022-07-29T06:29:13;99244.44;;;32.10;100.00
21960;BME280;11144;43.030;25.108;2022-07-29T06:30:48;99254.41;;;32.32;100.00
21960;BME280;11144;43.030;25.108;2022-07-29T06:32:22;99250.59;;;32.33;100.00
21960;BME280;11144;43.030;25.108;2022-07-29T06:33:58;99254.00;;;32.20;100.00
21960;BME280;11144;43.030;25.108;2022-07-29T06:35:33;99257.56;;;32.35;100.00
21960;BME280;11144;43.030;25.108;2022-07-29T06:37:13;99248.25;;;32.51;100.00
21960;BME280;11144;43.030;25.108;2022-07-29T06:38:46;99251.28;;;31.85;100.00
21960;BME280;11144;43.030;25.108;2022-07-29T06:40:22;99246.00;;;31.68;100.00
21960;BME280;11144;43.030;25.108;2022-07-29T06:42:13;99240.31;;;31.85;100.00
21960;BME280;11144;43.030;25.108;2022-07-29T06:43:47;99237.25;;;32.09;100.00
21960;BME280;11144;43.030;25.108;2022-07-29T06:45:25;99235.75;;;32.42;100.00
21960;BME280;11144;43.030;25.108;2022-07-29T06:47:00;99231.53;;;32.67;100.00
21960;BME280;11144;43.030;25.108;2022-07-29T06:48:35;99232.81;;;32.85;100.00
21960;BME280;11144;43.030;25.108;2022-07-29T06:50:09;99232.22;;;32.90;100.00
21960;BME280;11144;43.030;25.108;2022-07-29T06:51:44;99239.59;;;33.17;100.00
21960;BME280;11144;43.030;25.108;2022-07-29T06:53:17;99233.59;;;33.07;100.00
21960;BME280;11144;43.030;25.108;2022-07-29T06:54:50;99229.59;;;32.82;100.00
21960;BME280;11144;43.030;25.108;2022-07-29T06:56:24;99237.50;;;33.19;100.00
21960;BME280;11144;43.030;25.108;2022-07-29T06:57:57;99239.34;;;33.39;100.00
21960;BME280;11144;43.030;25.108;2022-07-29T06:59:30;99238.22;;;33.61;100.00
21960;BME280;11144;43.030;25.108;2022-07-29T07:01:07;99235.50;;;33.68;100.00
21960;BME280;11144;43.030;25.108;2022-07-29T07:02:42;99240.09;;;33.61;100.00
21960;BME280;11144;43.030;25.108;2022-07-29T07:04:15;99231.50;;;33.77;100.00
21960;BME280;11144;43.030;25.108;2022-07-29T07:05:49;99238.78;;;33.84;100.00
21960;BME280;11144;43.030;25.108;2022-07-29T07:07:21;99230.78;;;33.96;100.00
21960;BME280;11144;43.030;25.108;2022-07-29T07:08:55;99238.38;;;33.94;100.00
21960;BME280;11144;43.030;25.108;2022-07-29T07:10:28;99237.09;;;33.90;100.00
21960;BME280;11144;43.030;25.108;2022-07-29T07:12:02;99235.25;;;33.97;100.00
21960;BME280;11144;43.030;25.108;2022-07-29T07:13:35;99232.50;;;34.03;100.00
21960;BME280;11144;43.030;25.108;2022-07-29T07:15:09;99232.09;;;34.13;100.00
21960;BME280;11144;43.030;25.108;2022-07-29T07:16:42;99219.91;;;34.22;100.00
21960;BME280;11144;43.030;25.108;2022-07-29T07:18:17;99235.16;;;34.44;100.00
21960;BME280;11144;43.030;25.108;2022-07-29T07:19:51;99226.91;;;34.44;100.00
21960;BME280;11144;43.030;25.108;2022-07-29T07:21:24;99221.22;;;34.45;100.00
21960;BME280;11144;43.030;25.108;2022-07-29T07:23:01;99233.69;;;34.41;100.00
21960;BME280;11144;43.030;25.108;2022-07-29T07:24:35;99229.28;;;34.60;100.00
21960;BME280;11144;43.030;25.108;2022-07-29T07:26:08;99223.78;;;34.67;100.00
21960;BME280;11144;43.030;25.108;2022-07-29T07:27:42;99224.63;;;34.80;100.00
21960;BME280;11144;43.030;25.108;2022-07-29T07:29:16;99231.84;;;34.94;100.00
21960;BME280;11144;43.030;25.108;2022-07-29T07:30:49;99222.53;;;35.08;100.00
21960;BME280;11144;43.030;25.108;2022-07-29T07:32:22;99227.19;;;35.01;100.00
21960;BME280;11144;43.030;25.108;2022-07-29T07:33:57;99227.38;;;34.67;100.00
21960;BME280;11144;43.030;25.108;2022-07-29T07:35:31;99218.25;;;34.47;100.00
21960;BME280;11144;43.030;25.108;2022-07-29T07:37:05;99218.41;;;34.26;100.00
21960;BME280;11144;43.030;25.108;2022-07-29T07:38:38;99224.47;;;34.02;100.00
21960;BME280;11144;43.030;25.108;2022-07-29T07:40:12;99219.78;;;33.96;100.00
21960;BME280;11144;43.030;25.108;2022-07-29T07:41:49;99213.69;;;34.07;100.00
21960;BME280;11144;43.030;25.108;2022-07-29T07:43:22;99216.06;;;34.16;100.00
21960;BME280;11144;43.030;25.108;2022-07-29T07:44:56;99213.59;;;34.34;100.00
21960;BME280;11144;43.030;25.108;2022-07-29T07:46:44;99208.13;;;34.60;100.00
21960;BME280;11144;43.030;25.108;2022-07-29T07:48:18;99214.91;;;34.71;100.00
21960;BME280;11144;43.030;25.108;2022-07-29T07:49:53;99208.16;;;35.00;100.00
21960;BME280;11144;43.030;25.108;2022-07-29T07:51:26;99210.22;;;35.17;100.00
21960;BME280;11144;43.030;25.108;2022-07-29T07:52:59;99205.53;;;35.57;100.00
21960;BME280;11144;43.030;25.108;2022-07-29T07:54:33;99196.59;;;35.61;100.00
21960;BME280;11144;43.030;25.108;2022-07-29T07:56:08;99208.38;;;35.88;100.00
21960;BME280;11144;43.030;25.108;2022-07-29T07:57:43;99196.50;;;35.87;100.00
21960;BME280;11144;43.030;25.108;2022-07-29T07:59:17;99213.94;;;35.81;100.00
21960;BME280;11144;43.030;25.108;2022-07-29T08:00:50;99205.41;;;35.89;100.00
21960;BME280;11144;43.030;25.108;2022-07-29T08:02:24;99199.97;;;36.14;100.00
21960;BME280;11144;43.030;25.108;2022-07-29T08:03:57;99197.63;;;36.17;100.00
21960;BME280;11144;43.030;25.108;2022-07-29T08:05:32;99205.19;;;36.35;100.00
21960;BME280;11144;43.030;25.108;2022-07-29T08:07:10;99199.19;;;36.44;100.00
21960;BME280;11144;43.030;25.108;2022-07-29T08:08:43;99197.09;;;36.64;100.00
21960;BME280;11144;43.030;25.108;2022-07-29T08:10:20;99195.81;;;36.73;100.00
21960;BME280;11144;43.030;25.108;2022-07-29T08:12:07;99202.59;;;36.71;100.00
21960;BME280;11144;43.030;25.108;2022-07-29T08:13:41;99197.09;;;36.64;100.00
21960;BME280;11144;43.030;25.108;2022-07-29T08:15:14;99203.97;;;36.86;100.00